Hlavní strana
METAR-TAF:

METAR-TAF

Letiště :

Siirt, Turecko

zeměpisná šířka: 37-58-41N, zeměpisná délka: 41-50-21E, výška: 610 m

Aktuální stav počasí

Zpráva byla vytvořena před 11 hodinami a 37 minutami, v 12:50 UTC
vítr z různých směrů 8 kt
Teplota 40°C
Vlhkost vzduchu 8%
Tlak 1008 hPa
Viditelnost 10 km a více
Žádná oblačnost pod 1500 m, nevyskytují se cumulonimby.

METAR: LTCL 221250Z VRB08KT CAVOK 40/M00 Q1008

Čas: 03:27 (00:27 UTC)

Předpověď počasí

Zpráva byla vytvořena před 10 hodinami a 47 minutami, v 13:40 UTC
Předpověď platná od 22 v 15 UTC do 22 v 24 UTC
Jihojihozápadní vítr 12 kt
Viditelnost 10 km a více
Žádná oblačnost pod 1500 m, nevyskytují se cumulonimby.
Změna
od 22 v 16 UTC do 22 v 18 UTC
vítr z různých směrů 2 kt

TAF: LTCL 221340Z 2215/2224 20012KT CAVOK BECMG 2216/2218 VRB02KT

Stav a předpovědi počasí z více než 4 000 letišť (zprávy METAR a TAF).

Červené a žluté tečky na mapě představují dostupné meteorologické stanice.

Když kurzor umístíte na tečku, zobrazí se název stanice.

Pak kliknutím zobrazíte stav a předpověď počasí.

Chcete-li změnit mapu, kliknutím na zelené tlačítko se znaménkem +mapu přiblížíte, kliknutím na zelené tlačítko se znaménkem – mapu oddálíte a kliknutím na zelené šipky přejdete na sousední mapy.


METAR-TAF: